**Search for your results by entering your last name OR bib number OR search by age group to compare your stats with others
Individual Search
 
Bib:
Last Name:
All Participants Search
 
Top Ten Women
PlaceNameTimePace
1.Nancy Moore1:12:4172:41/M
2.Christina Buzby1:15:4975:49/M
3.Amanda Chance1:19:0179:01/M
4.Louise Howard1:20:2480:24/M
5.Alyssa Nunez1:20:4080:40/M
6.Soo Battle1:22:1282:12/M
7.Nikki Campbell1:23:4583:45/M
8.Marggy Pabon1:25:2685:26/M
9.Taylor Holmes1:25:3785:37/M
10.Erika Zoellner1:25:4485:44/M
Top Ten Men
PlaceNameTimePace
1.Dana Merry1:00:1160:11/M
2.Danny Craven1:00:3660:36/M
3.Chuck Baker1:03:2463:24/M
4.Bill Schroeder1:04:4064:40/M
5.Justin Eggemeyer1:05:2265:22/M
6.Jonathan Elswood1:05:3865:38/M
7.Sherman Jayson1:07:5367:53/M
8.Armando Ramires1:09:2669:26/M
9.Steve Schermerhorn1:09:3969:39/M
10.Gary Osborn1:10:0170:01/M
Contact us for results help

Gallery of Events

Contact Us

Address:
3019 Alvin Devane Blvd.
Building 1, Suite 160
Austin, Texas 78741

Phone:
(512) 386 - 7966

Email:
info@cadencesports.com